createdAt,value
2016-11-15T00:00:27.817Z,0
2016-11-15T00:01:27.748Z,0
2016-11-15T00:02:27.789Z,0
2016-11-15T00:03:28.317Z,0
2016-11-15T00:04:27.758Z,0
2016-11-15T00:05:27.844Z,0
2016-11-15T00:06:27.938Z,0
2016-11-15T00:07:27.761Z,0
2016-11-15T00:08:28.448Z,0
2016-11-15T00:09:27.782Z,0
2016-11-15T00:10:27.833Z,0
2016-11-15T00:11:27.961Z,0
2016-11-15T00:12:27.924Z,0
2016-11-15T00:13:27.767Z,0
2016-11-15T00:14:27.746Z,0
2016-11-15T00:15:27.778Z,0
2016-11-15T00:16:28.556Z,0
2016-11-15T00:17:27.971Z,0
2016-11-15T00:18:27.990Z,0
2016-11-15T00:19:27.794Z,0
2016-11-15T00:20:28.232Z,0
2016-11-15T00:21:27.787Z,0
2016-11-15T00:22:27.741Z,0
2016-11-15T00:23:27.731Z,0
2016-11-15T00:24:27.730Z,0
2016-11-15T00:25:27.736Z,0
2016-11-15T00:26:27.755Z,0
2016-11-15T00:27:27.767Z,0
2016-11-15T00:28:27.912Z,0
2016-11-15T00:29:27.778Z,0
2016-11-15T00:30:28.178Z,0
2016-11-15T00:31:27.743Z,0
2016-11-15T00:32:27.749Z,0
2016-11-15T00:33:27.733Z,0
2016-11-15T00:34:27.757Z,0
2016-11-15T00:35:27.805Z,0
2016-11-15T00:36:27.760Z,0
2016-11-15T00:37:27.769Z,0
2016-11-15T00:38:28.058Z,0
2016-11-15T00:39:27.760Z,0
2016-11-15T00:40:28.406Z,0
2016-11-15T00:41:27.741Z,0
2016-11-15T00:42:27.912Z,0
2016-11-15T00:43:27.810Z,0
2016-11-15T00:44:27.978Z,0
2016-11-15T00:45:27.752Z,0
2016-11-15T00:46:27.925Z,0
2016-11-15T00:47:27.761Z,0
2016-11-15T00:48:27.932Z,0
2016-11-15T00:49:28.039Z,0
2016-11-15T00:50:27.947Z,0
2016-11-15T00:51:27.916Z,0
2016-11-15T00:52:27.824Z,0
2016-11-15T00:53:27.766Z,0
2016-11-15T00:54:27.849Z,0
2016-11-15T00:55:27.943Z,0
2016-11-15T00:56:27.860Z,0
2016-11-15T00:57:27.836Z,0
2016-11-15T00:58:27.987Z,0
2016-11-15T00:59:27.873Z,0
2016-11-15T01:00:28.030Z,0
2016-11-15T01:01:27.973Z,0
2016-11-15T01:02:27.756Z,0
2016-11-15T01:03:27.777Z,0
2016-11-15T01:04:27.791Z,0
2016-11-15T01:05:27.764Z,0
2016-11-15T01:06:27.895Z,0
2016-11-15T01:07:27.805Z,0
2016-11-15T01:08:27.813Z,0
2016-11-15T01:09:27.801Z,0
2016-11-15T01:10:29.146Z,0
2016-11-15T01:11:27.799Z,0
2016-11-15T01:12:27.766Z,0
2016-11-15T01:13:27.802Z,0
2016-11-15T01:14:28.043Z,0
2016-11-15T01:15:27.882Z,0
2016-11-15T01:16:27.781Z,0
2016-11-15T01:17:27.816Z,0
2016-11-15T01:18:27.835Z,0
2016-11-15T01:19:27.815Z,0
2016-11-15T01:20:27.981Z,0
2016-11-15T01:21:27.821Z,0
2016-11-15T01:22:27.774Z,0
2016-11-15T01:23:27.795Z,0
2016-11-15T01:24:27.815Z,0
2016-11-15T01:25:27.799Z,0
2016-11-15T01:26:27.837Z,0
2016-11-15T01:27:28.147Z,0
2016-11-15T01:28:27.799Z,0
2016-11-15T01:29:27.882Z,0
2016-11-15T01:30:27.812Z,0
2016-11-15T01:31:27.967Z,0
2016-11-15T01:32:27.799Z,0
2016-11-15T01:33:27.904Z,0
2016-11-15T01:34:27.810Z,0
2016-11-15T01:35:28.190Z,0
2016-11-15T01:36:27.768Z,0
2016-11-15T01:37:27.834Z,0
2016-11-15T01:38:27.818Z,0
2016-11-15T01:39:27.872Z,0
2016-11-15T01:40:27.822Z,0
2016-11-15T01:41:27.892Z,0
2016-11-15T01:42:27.857Z,0
2016-11-15T01:43:27.821Z,0
2016-11-15T01:44:27.870Z,0
2016-11-15T01:45:27.862Z,0
2016-11-15T01:46:28.016Z,0
2016-11-15T01:47:27.842Z,0
2016-11-15T01:48:27.831Z,0
2016-11-15T01:49:27.829Z,0
2016-11-15T01:50:27.896Z,0
2016-11-15T01:51:28.206Z,0
2016-11-15T01:52:27.911Z,0
2016-11-15T01:53:27.755Z,0
2016-11-15T01:54:27.792Z,0
2016-11-15T01:55:28.315Z,0
2016-11-15T01:56:27.978Z,0
2016-11-15T01:57:27.827Z,0
2016-11-15T01:58:27.967Z,0
2016-11-15T01:59:28.454Z,0
2016-11-15T02:00:27.818Z,0
2016-11-15T02:01:27.795Z,0
2016-11-15T02:02:27.845Z,0
2016-11-15T02:03:28.163Z,0
2016-11-15T02:04:27.859Z,0
2016-11-15T02:05:27.809Z,0
2016-11-15T02:06:27.813Z,0
2016-11-15T02:07:27.834Z,0
2016-11-15T02:08:28.055Z,0
2016-11-15T02:09:27.818Z,0
2016-11-15T02:10:27.851Z,0
2016-11-15T02:11:27.850Z,0
2016-11-15T02:12:27.805Z,0
2016-11-15T02:13:27.796Z,0
2016-11-15T02:14:27.863Z,0
2016-11-15T02:15:27.839Z,0
2016-11-15T02:16:27.859Z,0
2016-11-15T02:17:27.927Z,0
2016-11-15T02:18:27.826Z,0
2016-11-15T02:19:27.794Z,0
2016-11-15T02:20:27.867Z,0
2016-11-15T02:21:27.857Z,0
2016-11-15T02:22:27.883Z,0
2016-11-15T02:23:27.842Z,0
2016-11-15T02:24:27.860Z,0
2016-11-15T02:25:28.032Z,0
2016-11-15T02:26:27.878Z,0
2016-11-15T02:27:27.850Z,0
2016-11-15T02:28:28.589Z,0
2016-11-15T02:29:27.909Z,0
2016-11-15T02:30:28.458Z,0
2016-11-15T02:31:27.911Z,0
2016-11-15T02:32:27.840Z,0
2016-11-15T02:33:27.847Z,0
2016-11-15T02:34:27.818Z,0
2016-11-15T02:35:27.819Z,0
2016-11-15T02:36:27.838Z,0
2016-11-15T02:37:27.826Z,0
2016-11-15T02:38:27.858Z,0
2016-11-15T02:39:27.880Z,0
2016-11-15T02:40:27.895Z,0
2016-11-15T02:41:27.853Z,0
2016-11-15T02:42:27.902Z,0
2016-11-15T02:43:27.871Z,0
2016-11-15T02:44:27.885Z,0
2016-11-15T02:45:27.868Z,0
2016-11-15T02:46:27.896Z,0
2016-11-15T02:47:27.861Z,0
2016-11-15T02:48:27.869Z,0
2016-11-15T02:49:27.968Z,0
2016-11-15T02:50:27.896Z,0
2016-11-15T02:51:27.887Z,0
2016-11-15T02:52:27.859Z,0
2016-11-15T02:53:27.866Z,0
2016-11-15T02:54:27.960Z,0
2016-11-15T02:55:27.847Z,0
2016-11-15T02:56:27.920Z,0
2016-11-15T02:57:27.877Z,0
2016-11-15T02:58:28.618Z,0
2016-11-15T02:59:27.850Z,0
2016-11-15T03:00:27.891Z,0
2016-11-15T03:01:29.234Z,0
2016-11-15T03:02:27.914Z,0
2016-11-15T03:03:27.893Z,0
2016-11-15T03:04:28.365Z,0
2016-11-15T03:05:27.923Z,0
2016-11-15T03:06:30.070Z,0
2016-11-15T03:07:36.932Z,0
2016-11-15T03:08:37.120Z,0
2016-11-15T03:09:33.294Z,0
2016-11-15T03:10:27.872Z,0
2016-11-15T03:11:37.241Z,0
2016-11-15T03:12:31.113Z,0
2016-11-15T03:13:38.509Z,0
2016-11-15T03:14:40.587Z,0
2016-11-15T03:15:39.185Z,0
2016-11-15T03:16:38.659Z,0
2016-11-15T03:17:38.865Z,0
2016-11-15T03:18:37.712Z,0
2016-11-15T03:19:39.642Z,0
2016-11-15T03:20:38.883Z,0
2016-11-15T03:21:39.484Z,0
2016-11-15T03:22:38.031Z,0
2016-11-15T03:23:37.286Z,0
2016-11-15T03:24:37.647Z,0
2016-11-15T03:25:39.401Z,0
2016-11-15T03:26:41.324Z,0
2016-11-15T03:27:39.091Z,0
2016-11-15T03:28:35.637Z,0
2016-11-15T03:29:36.576Z,0
2016-11-15T03:30:37.072Z,0
2016-11-15T03:31:37.684Z,0
2016-11-15T03:32:36.119Z,0
2016-11-15T03:33:37.606Z,0
2016-11-15T03:34:29.102Z,0
2016-11-15T03:35:27.866Z,0
2016-11-15T03:36:27.893Z,0
2016-11-15T03:37:27.867Z,0
2016-11-15T03:38:27.968Z,0
2016-11-15T03:39:28.159Z,0
2016-11-15T03:40:27.852Z,0
2016-11-15T03:41:27.886Z,0
2016-11-15T03:42:27.883Z,0
2016-11-15T03:43:27.843Z,0
2016-11-15T03:44:27.881Z,0
2016-11-15T03:45:27.877Z,0
2016-11-15T03:46:29.289Z,0
2016-11-15T03:47:28.259Z,0
2016-11-15T03:48:28.111Z,0
2016-11-15T03:49:27.889Z,0
2016-11-15T03:50:27.905Z,0
2016-11-15T03:51:27.893Z,0
2016-11-15T03:52:27.862Z,0
2016-11-15T03:53:27.875Z,0
2016-11-15T03:54:27.897Z,0
2016-11-15T03:55:27.915Z,0
2016-11-15T03:56:27.906Z,0
2016-11-15T03:57:27.917Z,0
2016-11-15T03:58:27.928Z,0
2016-11-15T03:59:27.949Z,0
2016-11-15T04:00:29.021Z,0
2016-11-15T04:01:28.016Z,0
2016-11-15T04:02:27.891Z,0
2016-11-15T04:03:28.202Z,0
2016-11-15T04:04:27.909Z,0
2016-11-15T04:05:27.960Z,0
2016-11-15T04:06:27.896Z,0
2016-11-15T04:07:27.944Z,0
2016-11-15T04:08:27.992Z,0
2016-11-15T04:09:27.960Z,0
2016-11-15T04:10:27.882Z,0
2016-11-15T04:11:27.889Z,0
2016-11-15T04:12:28.387Z,0
2016-11-15T04:13:28.319Z,0
2016-11-15T04:14:27.934Z,0
2016-11-15T04:15:28.290Z,0
2016-11-15T04:16:27.902Z,0
2016-11-15T04:17:27.880Z,0
2016-11-15T04:18:27.901Z,0
2016-11-15T04:19:27.890Z,0
2016-11-15T04:20:27.928Z,0
2016-11-15T04:21:27.946Z,0
2016-11-15T04:22:27.902Z,0
2016-11-15T04:23:27.974Z,0
2016-11-15T04:24:27.919Z,0
2016-11-15T04:25:27.932Z,0
2016-11-15T04:26:27.896Z,0
2016-11-15T04:27:28.981Z,0
2016-11-15T04:28:27.938Z,0
2016-11-15T04:29:27.931Z,0
2016-11-15T04:30:27.897Z,0
2016-11-15T04:31:28.127Z,0
2016-11-15T04:32:27.906Z,0
2016-11-15T04:33:28.393Z,0
2016-11-15T04:34:27.942Z,0
2016-11-15T04:35:27.912Z,0
2016-11-15T04:36:27.914Z,0
2016-11-15T04:37:28.089Z,0
2016-11-15T04:38:29.948Z,0
2016-11-15T04:39:27.947Z,0
2016-11-15T04:40:27.945Z,0
2016-11-15T04:41:28.298Z,0
2016-11-15T04:42:27.922Z,0
2016-11-15T04:43:27.944Z,0
2016-11-15T04:44:28.059Z,0
2016-11-15T04:45:27.970Z,0
2016-11-15T04:46:27.981Z,0
2016-11-15T04:47:27.944Z,0
2016-11-15T04:48:27.911Z,0
2016-11-15T04:49:28.232Z,0
2016-11-15T04:50:27.981Z,0
2016-11-15T04:51:27.996Z,0
2016-11-15T04:52:27.931Z,0
2016-11-15T04:53:27.938Z,0
2016-11-15T04:54:27.922Z,0
2016-11-15T04:55:27.906Z,0
2016-11-15T04:56:27.941Z,0
2016-11-15T04:57:27.925Z,0
2016-11-15T04:58:27.944Z,0
2016-11-15T04:59:27.989Z,0
2016-11-15T05:00:28.854Z,0
2016-11-15T05:01:27.890Z,0
2016-11-15T05:02:27.964Z,0
2016-11-15T05:03:27.929Z,0
2016-11-15T05:04:27.909Z,0
2016-11-15T05:05:27.888Z,0
2016-11-15T05:06:27.932Z,0
2016-11-15T05:07:27.947Z,0
2016-11-15T05:08:27.937Z,0
2016-11-15T05:09:27.970Z,0
2016-11-15T05:10:27.965Z,0
2016-11-15T05:11:27.954Z,0
2016-11-15T05:12:27.922Z,0
2016-11-15T05:13:27.970Z,0
2016-11-15T05:14:27.967Z,0
2016-11-15T05:15:27.964Z,0
2016-11-15T05:16:27.915Z,0
2016-11-15T05:17:27.922Z,0
2016-11-15T05:18:27.911Z,0
2016-11-15T05:19:27.945Z,0
2016-11-15T05:20:27.967Z,0
2016-11-15T05:21:27.923Z,0
2016-11-15T05:22:27.960Z,0
2016-11-15T05:23:27.943Z,0
2016-11-15T05:24:28.028Z,0
2016-11-15T05:25:28.020Z,0
2016-11-15T05:26:27.971Z,0
2016-11-15T05:27:27.989Z,0
2016-11-15T05:28:27.966Z,0
2016-11-15T05:29:28.016Z,0
2016-11-15T05:30:27.965Z,0
2016-11-15T05:31:27.957Z,0
2016-11-15T05:32:27.935Z,0
2016-11-15T05:33:27.968Z,0
2016-11-15T05:34:27.981Z,0
2016-11-15T05:35:27.941Z,0
2016-11-15T05:36:27.946Z,0
2016-11-15T05:37:27.996Z,0
2016-11-15T05:38:27.978Z,0
2016-11-15T05:39:27.982Z,0
2016-11-15T05:40:27.954Z,0
2016-11-15T05:41:28.483Z,0
2016-11-15T05:42:27.987Z,0
2016-11-15T05:43:27.959Z,0
2016-11-15T05:44:28.011Z,0
2016-11-15T05:45:28.007Z,0
2016-11-15T05:46:27.971Z,0
2016-11-15T05:47:27.960Z,0
2016-11-15T05:48:28.035Z,0
2016-11-15T05:49:27.967Z,0
2016-11-15T05:50:27.976Z,0
2016-11-15T05:51:27.936Z,0
2016-11-15T05:52:27.973Z,0
2016-11-15T05:53:27.995Z,0
2016-11-15T05:54:28.018Z,0
2016-11-15T05:55:27.979Z,0
2016-11-15T05:56:27.928Z,0
2016-11-15T05:57:27.960Z,0
2016-11-15T05:58:27.967Z,0
2016-11-15T05:59:27.983Z,0
2016-11-15T06:00:27.995Z,0
2016-11-15T06:01:27.989Z,0
2016-11-15T06:02:28.011Z,0
2016-11-15T06:03:28.025Z,0
2016-11-15T06:04:27.983Z,0
2016-11-15T06:05:27.977Z,0
2016-11-15T06:06:28.154Z,0
2016-11-15T06:07:27.987Z,0
2016-11-15T06:08:28.027Z,0
2016-11-15T06:09:28.044Z,0
2016-11-15T06:10:28.007Z,0
2016-11-15T06:11:27.977Z,0
2016-11-15T06:12:28.012Z,0
2016-11-15T06:13:27.993Z,0
2016-11-15T06:14:27.979Z,0
2016-11-15T06:15:28.022Z,0
2016-11-15T06:16:28.338Z,0
2016-11-15T06:17:28.060Z,0
2016-11-15T06:18:28.050Z,0
2016-11-15T06:19:28.027Z,0
2016-11-15T06:20:27.991Z,0
2016-11-15T06:21:27.986Z,0
2016-11-15T06:22:27.999Z,4
2016-11-15T06:23:28.274Z,4
2016-11-15T06:24:28.064Z,4
2016-11-15T06:25:28.002Z,4
2016-11-15T06:26:28.009Z,0
2016-11-15T06:27:28.179Z,4
2016-11-15T06:28:28.021Z,4
2016-11-15T06:29:28.760Z,4
2016-11-15T06:30:28.016Z,8
2016-11-15T06:31:28.037Z,4
2016-11-15T06:32:28.047Z,8
2016-11-15T06:33:28.011Z,8
2016-11-15T06:34:28.316Z,12
2016-11-15T06:35:29.234Z,12
2016-11-15T06:36:28.645Z,12
2016-11-15T06:37:28.018Z,16
2016-11-15T06:38:28.461Z,16
2016-11-15T06:39:28.018Z,16
2016-11-15T06:40:28.022Z,20
2016-11-15T06:41:28.453Z,20
2016-11-15T06:42:28.319Z,24
2016-11-15T06:43:28.034Z,28
2016-11-15T06:44:27.991Z,32
2016-11-15T06:45:27.999Z,36
2016-11-15T06:46:28.707Z,32
2016-11-15T06:47:28.332Z,40
2016-11-15T06:48:28.007Z,44
2016-11-15T06:49:28.053Z,48
2016-11-15T06:50:28.102Z,48
2016-11-15T06:51:28.178Z,56
2016-11-15T06:52:28.341Z,52
2016-11-15T06:53:27.996Z,56
2016-11-15T06:54:27.983Z,64
2016-11-15T06:55:28.006Z,76
2016-11-15T06:56:28.665Z,76
2016-11-15T06:57:28.068Z,80
2016-11-15T06:58:28.020Z,88
2016-11-15T06:59:28.842Z,84
2016-11-15T07:00:28.035Z,88
2016-11-15T07:01:28.045Z,96
2016-11-15T07:02:28.743Z,96
2016-11-15T07:03:28.061Z,128
2016-11-15T07:04:28.059Z,124
2016-11-15T07:05:28.023Z,112
2016-11-15T07:06:28.039Z,148
2016-11-15T07:07:28.005Z,152
2016-11-15T07:08:28.052Z,156
2016-11-15T07:09:28.039Z,168
2016-11-15T07:10:28.055Z,160
2016-11-15T07:11:28.053Z,176
2016-11-15T07:12:28.079Z,204
2016-11-15T07:13:28.318Z,212
2016-11-15T07:14:28.053Z,228
2016-11-15T07:15:28.073Z,232
2016-11-15T07:16:28.044Z,264
2016-11-15T07:17:28.052Z,236
2016-11-15T07:18:28.056Z,272
2016-11-15T07:19:28.042Z,260
2016-11-15T07:20:28.062Z,284
2016-11-15T07:21:28.426Z,316
2016-11-15T07:22:28.077Z,312
2016-11-15T07:23:28.051Z,376
2016-11-15T07:24:28.057Z,348
2016-11-15T07:25:28.065Z,356
2016-11-15T07:26:28.056Z,396
2016-11-15T07:27:28.070Z,412
2016-11-15T07:28:28.061Z,464
2016-11-15T07:29:28.076Z,480
2016-11-15T07:30:28.058Z,416
2016-11-15T07:31:28.025Z,488
2016-11-15T07:32:28.101Z,552
2016-11-15T07:33:28.904Z,420
2016-11-15T07:34:28.104Z,400
2016-11-15T07:35:28.440Z,396
2016-11-15T07:36:28.079Z,440
2016-11-15T07:37:28.341Z,460
2016-11-15T07:38:28.082Z,416
2016-11-15T07:39:28.137Z,388
2016-11-15T07:40:28.104Z,364
2016-11-15T07:41:28.097Z,432
2016-11-15T07:42:28.067Z,432
2016-11-15T07:43:28.142Z,492
2016-11-15T07:44:28.225Z,460
2016-11-15T07:45:28.091Z,488
2016-11-15T07:46:28.085Z,468
2016-11-15T07:47:28.705Z,544
2016-11-15T07:48:28.159Z,596
2016-11-15T07:49:28.061Z,752
2016-11-15T07:50:28.104Z,856
2016-11-15T07:51:28.112Z,860
2016-11-15T07:52:28.126Z,788
2016-11-15T07:53:28.083Z,812
2016-11-15T07:54:28.089Z,1096
2016-11-15T07:55:28.109Z,992
2016-11-15T07:56:28.109Z,1032
2016-11-15T07:57:28.121Z,944
2016-11-15T07:58:28.041Z,1052
2016-11-15T07:59:28.108Z,968
2016-11-15T08:00:28.649Z,1248
2016-11-15T08:01:28.035Z,852
2016-11-15T08:02:28.090Z,764
2016-11-15T08:03:28.085Z,828
2016-11-15T08:04:28.092Z,892
2016-11-15T08:05:28.098Z,824
2016-11-15T08:06:28.126Z,888
2016-11-15T08:07:28.075Z,820
2016-11-15T08:08:28.090Z,796
2016-11-15T08:09:28.117Z,688
2016-11-15T08:10:28.097Z,776
2016-11-15T08:11:28.097Z,860
2016-11-15T08:12:28.124Z,980
2016-11-15T08:13:28.081Z,1092
2016-11-15T08:14:28.118Z,1188
2016-11-15T08:15:28.133Z,1416
2016-11-15T08:16:28.117Z,1492
2016-11-15T08:17:28.101Z,1208
2016-11-15T08:18:28.091Z,1280
2016-11-15T08:19:28.051Z,1484
2016-11-15T08:20:28.206Z,1220
2016-11-15T08:21:29.256Z,968
2016-11-15T08:22:28.095Z,1144
2016-11-15T08:23:28.110Z,980
2016-11-15T08:24:28.103Z,1020
2016-11-15T08:25:28.179Z,1352
2016-11-15T08:26:28.144Z,1468
2016-11-15T08:27:28.111Z,1204
2016-11-15T08:28:28.175Z,1252
2016-11-15T08:29:28.153Z,1212
2016-11-15T08:30:28.089Z,1284
2016-11-15T08:31:28.106Z,1300
2016-11-15T08:32:28.172Z,1228
2016-11-15T08:33:28.265Z,1424
2016-11-15T08:34:28.215Z,1524
2016-11-15T08:35:28.163Z,1660
2016-11-15T08:36:28.067Z,1604
2016-11-15T08:37:28.107Z,1856
2016-11-15T08:38:28.150Z,1796
2016-11-15T08:39:28.099Z,1840
2016-11-15T08:40:28.156Z,1620
2016-11-15T08:41:28.057Z,1316
2016-11-15T08:42:28.069Z,1180
2016-11-15T08:43:28.093Z,984
2016-11-15T08:44:28.213Z,1080
2016-11-15T08:45:28.139Z,1232
2016-11-15T08:46:28.461Z,1380
2016-11-15T08:47:28.093Z,1668
2016-11-15T08:48:28.157Z,1684
2016-11-15T08:49:28.427Z,1484
2016-11-15T08:50:28.215Z,1600
2016-11-15T08:51:28.154Z,1520
2016-11-15T08:52:28.222Z,1376
2016-11-15T08:53:28.240Z,1312
2016-11-15T08:54:28.235Z,1440
2016-11-15T08:55:28.241Z,1424
2016-11-15T08:56:28.392Z,1440
2016-11-15T08:57:28.152Z,1436
2016-11-15T08:58:28.172Z,1440
2016-11-15T08:59:28.135Z,1824
2016-11-15T09:00:28.314Z,2328
2016-11-15T09:01:28.162Z,2636
2016-11-15T09:02:28.509Z,2660
2016-11-15T09:03:28.126Z,2612
2016-11-15T09:04:28.107Z,2184
2016-11-15T09:05:28.146Z,1960
2016-11-15T09:06:28.417Z,2064
2016-11-15T09:07:28.206Z,1896
2016-11-15T09:08:28.110Z,2268
2016-11-15T09:09:28.145Z,2068
2016-11-15T09:10:28.232Z,1892
2016-11-15T09:11:28.186Z,2264
2016-11-15T09:12:28.149Z,2328
2016-11-15T09:13:28.156Z,2104
2016-11-15T09:14:28.134Z,2136
2016-11-15T09:15:28.210Z,2268
2016-11-15T09:16:28.207Z,2500
2016-11-15T09:17:28.198Z,2312
2016-11-15T09:18:28.155Z,2240
2016-11-15T09:19:28.146Z,1972
2016-11-15T09:20:28.135Z,1640
2016-11-15T09:21:28.758Z,1420
2016-11-15T09:22:28.111Z,1444
2016-11-15T09:23:28.131Z,1320
2016-11-15T09:24:28.146Z,1304
2016-11-15T09:25:28.166Z,1484
2016-11-15T09:26:28.127Z,1396
2016-11-15T09:27:28.145Z,1476
2016-11-15T09:28:28.228Z,1784
2016-11-15T09:29:28.123Z,1696
2016-11-15T09:30:28.166Z,1824
2016-11-15T09:31:28.108Z,1416
2016-11-15T09:32:28.145Z,1124
2016-11-15T09:33:28.171Z,1228
2016-11-15T09:34:28.118Z,1492
2016-11-15T09:35:28.154Z,1620
2016-11-15T09:36:28.139Z,2160
2016-11-15T09:37:28.151Z,2856
2016-11-15T09:38:28.142Z,2876
2016-11-15T09:39:28.160Z,3012
2016-11-15T09:40:28.198Z,2920
2016-11-15T09:41:28.142Z,2948
2016-11-15T09:42:28.109Z,2864
2016-11-15T09:43:28.138Z,2860
2016-11-15T09:44:28.152Z,3164
2016-11-15T09:45:28.168Z,3060
2016-11-15T09:46:28.164Z,2928
2016-11-15T09:47:28.152Z,2544
2016-11-15T09:48:28.151Z,2588
2016-11-15T09:49:28.167Z,2432
2016-11-15T09:50:28.155Z,2412
2016-11-15T09:51:28.141Z,2296
2016-11-15T09:52:28.130Z,2440
2016-11-15T09:53:28.142Z,2244
2016-11-15T09:54:28.159Z,2324
2016-11-15T09:55:29.105Z,2136
2016-11-15T09:56:28.170Z,2668
2016-11-15T09:57:28.135Z,3100
2016-11-15T09:58:28.158Z,2772
2016-11-15T09:59:28.156Z,2632
2016-11-15T10:00:28.155Z,2688
2016-11-15T10:01:28.118Z,1908
2016-11-15T10:02:28.128Z,2048
2016-11-15T10:03:28.139Z,1552
2016-11-15T10:04:28.159Z,1692
2016-11-15T10:05:28.140Z,1508
2016-11-15T10:06:28.147Z,1628
2016-11-15T10:07:28.194Z,1752
2016-11-15T10:08:28.209Z,1852
2016-11-15T10:09:28.168Z,1792
2016-11-15T10:10:28.195Z,1800
2016-11-15T10:11:28.222Z,1516
2016-11-15T10:12:28.156Z,1328
2016-11-15T10:13:28.152Z,1400
2016-11-15T10:14:28.169Z,1392
2016-11-15T10:15:28.134Z,1472
2016-11-15T10:16:28.161Z,1436
2016-11-15T10:17:28.146Z,1416
2016-11-15T10:18:28.157Z,1648
2016-11-15T10:19:28.193Z,1904
2016-11-15T10:20:28.171Z,1900
2016-11-15T10:21:28.169Z,1948
2016-11-15T10:22:28.164Z,1736
2016-11-15T10:23:28.161Z,1788
2016-11-15T10:24:28.102Z,2488
2016-11-15T10:25:28.265Z,3308
2016-11-15T10:26:28.266Z,3616
2016-11-15T10:27:28.160Z,3836
2016-11-15T10:28:28.168Z,3612
2016-11-15T10:29:28.210Z,3492
2016-11-15T10:30:28.174Z,2860
2016-11-15T10:31:28.227Z,3380
2016-11-15T10:32:28.197Z,3956
2016-11-15T10:33:28.160Z,2716
2016-11-15T10:34:28.153Z,1856
2016-11-15T10:35:28.188Z,1860
2016-11-15T10:36:28.224Z,1832
2016-11-15T10:37:28.245Z,1968
2016-11-15T10:38:28.194Z,1600
2016-11-15T10:39:28.168Z,1520
2016-11-15T10:40:28.205Z,1468
2016-11-15T10:41:28.200Z,1952
2016-11-15T10:42:28.191Z,2096
2016-11-15T10:43:28.213Z,1992
2016-11-15T10:44:28.177Z,1752
2016-11-15T10:45:28.229Z,2052
2016-11-15T10:46:28.206Z,2364
2016-11-15T10:47:28.222Z,2676
2016-11-15T10:48:28.200Z,2492
2016-11-15T10:49:28.270Z,2088
2016-11-15T10:50:28.235Z,2220
2016-11-15T10:51:28.238Z,2444
2016-11-15T10:52:28.191Z,2164
2016-11-15T10:53:28.207Z,2084
2016-11-15T10:54:28.189Z,1904
2016-11-15T10:55:28.293Z,2240
2016-11-15T10:56:28.254Z,1884
2016-11-15T10:57:28.920Z,2020
2016-11-15T10:58:28.240Z,2032
2016-11-15T10:59:28.904Z,2036
2016-11-15T11:00:28.400Z,2192
2016-11-15T11:01:28.289Z,2584
2016-11-15T11:02:28.313Z,3272
2016-11-15T11:03:28.276Z,3416
2016-11-15T11:04:28.338Z,3812
2016-11-15T11:05:28.288Z,4100
2016-11-15T11:06:28.366Z,3148
2016-11-15T11:07:28.946Z,3408
2016-11-15T11:08:28.310Z,3580
2016-11-15T11:09:28.210Z,3564
2016-11-15T11:10:28.348Z,3632
2016-11-15T11:11:28.351Z,3080
2016-11-15T11:12:28.362Z,3640
2016-11-15T11:13:28.405Z,3904
2016-11-15T11:14:28.379Z,3156
2016-11-15T11:15:28.324Z,3160
2016-11-15T11:16:28.374Z,2940
2016-11-15T11:17:28.353Z,3532
2016-11-15T11:18:28.430Z,3280
2016-11-15T11:19:28.424Z,2716
2016-11-15T11:20:28.372Z,2952
2016-11-15T11:21:28.956Z,2728
2016-11-15T11:22:28.402Z,2484
2016-11-15T11:23:28.950Z,2752
2016-11-15T11:24:28.370Z,2524
2016-11-15T11:25:28.972Z,2332
2016-11-15T11:26:28.431Z,2512
2016-11-15T11:27:28.382Z,2896
2016-11-15T11:28:28.423Z,3472
2016-11-15T11:29:28.385Z,2824
2016-11-15T11:30:28.392Z,2728
2016-11-15T11:31:28.370Z,2448
2016-11-15T11:32:28.424Z,2324
2016-11-15T11:33:28.483Z,2168
2016-11-15T11:34:28.920Z,2004
2016-11-15T11:35:28.424Z,2100
2016-11-15T11:36:28.411Z,2196
2016-11-15T11:37:29.253Z,2196
2016-11-15T11:38:28.428Z,2296
2016-11-15T11:39:28.431Z,2328
2016-11-15T11:40:28.772Z,2608
2016-11-15T11:41:28.916Z,3088
2016-11-15T11:42:28.422Z,3392
2016-11-15T11:43:28.753Z,3564
2016-11-15T11:44:28.292Z,3084
2016-11-15T11:45:28.290Z,3352
2016-11-15T11:46:28.345Z,3016
2016-11-15T11:47:28.270Z,2620
2016-11-15T11:48:28.939Z,2544
2016-11-15T11:49:28.296Z,2656
2016-11-15T11:50:28.240Z,3084
2016-11-15T11:51:28.310Z,2812
2016-11-15T11:52:28.353Z,2756
2016-11-15T11:53:28.341Z,2744
2016-11-15T11:54:28.278Z,2616
2016-11-15T11:55:28.244Z,2776
2016-11-15T11:56:28.293Z,2984
2016-11-15T11:57:28.306Z,2396
2016-11-15T11:58:28.232Z,2508
2016-11-15T11:59:28.203Z,2756
2016-11-15T12:00:28.264Z,2652
2016-11-15T12:01:28.286Z,2844
2016-11-15T12:02:28.246Z,2356
2016-11-15T12:03:28.273Z,2200
2016-11-15T12:04:28.233Z,2388
2016-11-15T12:05:28.287Z,2344
2016-11-15T12:06:28.283Z,2392
2016-11-15T12:07:28.241Z,2316
2016-11-15T12:08:28.325Z,2472
2016-11-15T12:09:28.321Z,2576
2016-11-15T12:10:28.302Z,2572
2016-11-15T12:11:28.368Z,2216
2016-11-15T12:12:28.281Z,2016
2016-11-15T12:13:28.248Z,2060
2016-11-15T12:14:28.306Z,2204
2016-11-15T12:15:28.284Z,2012
2016-11-15T12:16:28.293Z,1828
2016-11-15T12:17:28.306Z,1980
2016-11-15T12:18:28.336Z,2184
2016-11-15T12:19:28.273Z,2224
2016-11-15T12:20:28.283Z,2312
2016-11-15T12:21:28.313Z,2308
2016-11-15T12:22:28.273Z,2652
2016-11-15T12:23:28.286Z,2892
2016-11-15T12:24:28.288Z,2628
2016-11-15T12:25:28.350Z,2444
2016-11-15T12:26:28.319Z,2536
2016-11-15T12:27:28.310Z,2956
2016-11-15T12:28:28.313Z,2856
2016-11-15T12:29:29.000Z,2480
2016-11-15T12:30:28.315Z,2300
2016-11-15T12:31:28.290Z,2600
2016-11-15T12:32:28.290Z,2792
2016-11-15T12:33:28.319Z,2660
2016-11-15T12:34:28.281Z,2568
2016-11-15T12:35:28.275Z,2500
2016-11-15T12:36:28.287Z,2604
2016-11-15T12:37:28.300Z,2500
2016-11-15T12:38:28.301Z,2364
2016-11-15T12:39:28.363Z,2908
2016-11-15T12:40:28.252Z,2676
2016-11-15T12:41:28.322Z,2808
2016-11-15T12:42:28.956Z,2552
2016-11-15T12:43:28.284Z,2220
2016-11-15T12:44:28.294Z,2188
2016-11-15T12:45:28.301Z,2160
2016-11-15T12:46:28.304Z,2272
2016-11-15T12:47:28.331Z,1932
2016-11-15T12:48:28.316Z,1840
2016-11-15T12:49:28.411Z,1764
2016-11-15T12:50:28.364Z,1708
2016-11-15T12:51:28.375Z,1832
2016-11-15T12:52:28.382Z,1820
2016-11-15T12:53:28.338Z,1888
2016-11-15T12:54:28.285Z,2148
2016-11-15T12:55:28.302Z,2104
2016-11-15T12:56:28.317Z,2456
2016-11-15T12:57:28.323Z,2584
2016-11-15T12:58:28.322Z,2808
2016-11-15T12:59:28.293Z,3360
2016-11-15T13:00:28.285Z,3672
2016-11-15T13:01:28.307Z,3760
2016-11-15T13:02:28.325Z,3616
2016-11-15T13:03:28.299Z,3680
2016-11-15T13:04:28.328Z,3692
2016-11-15T13:05:28.334Z,4156
2016-11-15T13:06:28.320Z,4112
2016-11-15T13:07:28.342Z,4028
2016-11-15T13:08:28.297Z,4232
2016-11-15T13:09:28.351Z,4456
2016-11-15T13:10:28.347Z,4392
2016-11-15T13:11:28.358Z,3064
2016-11-15T13:12:28.398Z,2912
2016-11-15T13:13:28.367Z,2632
2016-11-15T13:14:28.344Z,2696
2016-11-15T13:15:28.368Z,2020
2016-11-15T13:16:28.318Z,2024
2016-11-15T13:17:28.322Z,2592
2016-11-15T13:18:28.356Z,2408
2016-11-15T13:19:28.383Z,2476
2016-11-15T13:20:28.344Z,2068
2016-11-15T13:21:28.470Z,1848
2016-11-15T13:22:28.373Z,1868
2016-11-15T13:23:28.363Z,2016
2016-11-15T13:24:28.376Z,1476
2016-11-15T13:25:28.420Z,1652
2016-11-15T13:26:28.383Z,1700
2016-11-15T13:27:28.472Z,1652
2016-11-15T13:28:28.379Z,1492
2016-11-15T13:29:28.746Z,1924
2016-11-15T13:30:28.336Z,1904
2016-11-15T13:31:28.924Z,1756
2016-11-15T13:32:28.352Z,1984
2016-11-15T13:33:28.360Z,1576
2016-11-15T13:34:28.322Z,1472
2016-11-15T13:35:28.330Z,1292
2016-11-15T13:36:28.354Z,1112
2016-11-15T13:37:28.343Z,1276
2016-11-15T13:38:28.380Z,1532
2016-11-15T13:39:28.419Z,1520
2016-11-15T13:40:28.352Z,1232
2016-11-15T13:41:28.332Z,1156
2016-11-15T13:42:28.350Z,1540
2016-11-15T13:43:28.296Z,1644
2016-11-15T13:44:28.315Z,1756
2016-11-15T13:45:28.448Z,1644
2016-11-15T13:46:28.381Z,1644
2016-11-15T13:47:28.358Z,1728
2016-11-15T13:48:28.333Z,1556
2016-11-15T13:49:28.372Z,1972
2016-11-15T13:50:28.336Z,1740
2016-11-15T13:51:28.352Z,1380
2016-11-15T13:52:28.346Z,1452
2016-11-15T13:53:28.329Z,1224
2016-11-15T13:54:28.332Z,1220
2016-11-15T13:55:28.406Z,992
2016-11-15T13:56:28.436Z,1232
2016-11-15T13:57:29.882Z,1488
2016-11-15T13:58:28.371Z,1208
2016-11-15T13:59:28.626Z,1112
2016-11-15T14:00:28.394Z,948
2016-11-15T14:01:28.385Z,972
2016-11-15T14:02:28.378Z,1136